Airfield :
LOGIN :

Register | Disclaimer

   EN    FR    IT 

 










Legend :    VFR   Marginal VFR   IFR   Intensive IFR   Very Intensive IFR
Visi :
Ceiling :
>= 8 km
>= 3000ft
5 to 8 km
1000 to 3000 ft
1500m to 5 km
500 to 1000 ft
800 to 1500m
200 to 500 ft
< 800m
< 200 ft
Symbols :   Thunderstorms  Fog  Heavy snow  Heavy precipitations  Wind > 20 kt
SIGMETs :     Misc.  Thunderstorms  Icing  Turbulence  Mountain Waves  Volcanic Ashes






- Airport Elevation : 325 ft
- IATA code : BES


LFRB - Brest

CURRENT METAR :
  • 220530Z AUTO 24005KT 9999 FEW039/// SCT047/// BKN210/// ///TCU 03/02 Q0994 TEMPO 27015G25KT 4000 SHRA BKN030CB

EXPIRED METARs :
  • 220500Z AUTO 24004KT CAVOK 03/02 Q0994 TEMPO 27015G25KT 4500 SHRA BKN030TCU
  • 220430Z AUTO 21003KT CAVOK 03/02 Q0994 TEMPO 27015G25KT 4500 SHRA BKN030TCU
  • 220400Z AUTO 23005KT 9999 BKN036/// BKN084/// BKN200/// ///CB 04/02 Q0994 TEMPO 27015G25KT 4500 SHRA SCT030
  • 220330Z AUTO 29005KT 250V330 9999 SCT038/// BKN049/// BKN062/// ///CB 03/03 Q0993 TEMPO 27015G25KT 4500 SHRA SCT030
  • 220300Z AUTO 27003KT 9999 FEW034/// BKN210/// ///TCU 02/01 Q0993 BECMG SCT030

TAF TAF LFRB
Valid from the 22 at 06:00 until the 23 at 12:00 UTC


220500Z 2206/2312 27005KT 9999 SCT030
TEMPO 2206/2223 27015G25KT 4000 SHRA BKN030CB
BECMG 2207/2209 27015KT
PROB40
TEMPO 2212/2217 27020G40KT
BECMG 2221/2223 18008KT
TEMPO 2223/2309 3000 SHRAGS BKN014 BKN020CB
PROB40
TEMPO 2223/2305 2000 TSRAGS BKN013CB
BECMG 2301/2303 26015G30KT
PROB40
TEMPO 2303/2309 VRB20G45KT
BECMG 2307/2309 34010KT
ATIS : +33 2 98 32 02 71



MET'MAP, your aeronautical weather chart ! - Copyright ORBIFLY December 2007 - Disclaimer

ORBIFLY MET'MAP TEAM :

Programming & Development : Alexandra Zaïnal
Concept & original design : Baudouin d'Aumeries
Assistance for programming : Marc-Olivier Méhu
Technical & hardware support : Manuel Goepfert

Contact : metmap@orbifly.com




SOURCES & CREDITS :

   NOAA